This is the latest recevied weather packets stored in our database for station/object JM1YTT-13. If no packets are shown the sender has not sent any weather packets the latest 10 day(s).
| Time | Temp. | Humidity | Pressure | Rain* | Wind** | Luminosity | Snow |
|---|---|---|---|---|---|---|---|
| 1777464790 | 13.33° C | 93% | 1015.4 hPa | 0 mm | - | - | - |
| 1777462990 | 13.33° C | 93% | 1015 hPa | 0 mm | - | - | - |
| 1777461190 | 13.89° C | 92% | 1014.4 hPa | 0 mm | - | - | - |
| 1777457590 | 14.44° C | 89% | 1013.7 hPa | 0 mm | - | - | - |
| 1777453990 | 15° C | 85% | 1012.7 hPa | 0 mm | - | - | - |
| 1777452190 | 15.56° C | 84% | 1012.1 hPa | 0 mm | - | - | - |
| 1777450390 | 16.11° C | 82% | 1011.5 hPa | 0 mm | - | - | - |
| 1777448590 | 16.11° C | 81% | 1011 hPa | 0 mm | - | - | - |
| 1777446790 | 16.67° C | 81% | 1010.5 hPa | 0 mm | - | - | - |
| 1777443190 | 17.22° C | 77% | 1010.2 hPa | 0 mm | - | - | - |
| 1777441390 | 17.78° C | 81% | 1009.8 hPa | 0 mm | - | - | - |
| 1777439590 | 18.33° C | 77% | 1010.1 hPa | 0 mm | - | - | - |
| 1777437790 | 18.89° C | 78% | 1009.4 hPa | 0 mm | - | - | - |
| 1777435990 | 19.44° C | 72% | 1009.5 hPa | 0 mm | - | - | - |
| 1777432390 | 19.44° C | 75% | 1009.4 hPa | 0 mm | - | - | - |
| 1777428790 | 20° C | 73% | 1009.9 hPa | 0 mm | - | - | - |
| 1777425190 | 19.44° C | 77% | 1010 hPa | 0 mm | - | - | - |
| 1777423390 | 18.89° C | 77% | 1009.8 hPa | 0 mm | - | - | - |
| 1777416190 | 16.67° C | 88% | 1007.6 hPa | 0 mm | - | - | - |
| 1777412590 | 16.67° C | 88% | 1007.6 hPa | 0 mm | - | - | - |
| 1777410790 | 16.67° C | 88% | 1007.6 hPa | 0 mm | - | - | - |
| 1777407190 | 16.67° C | 88% | 1007.6 hPa | 0 mm | - | - | - |
| 1777383790 | 20° C | 80% | 1006.9 hPa | 0 mm | - | - | - |
| 1777374790 | 20° C | 74% | 1006.5 hPa | 0 mm | - | - | - |
| 1777371190 | 20.56° C | 73% | 1006 hPa | 0 mm | - | - | - |
* Rain latest hour (hover to see other rain measurements)
** Current wind speed in m/s (hover to see current wind gust speed)